sensor_id;sensor_type;location;lat;lon;timestamp;temperature;humidity
3850;DHT22;1940;51.052;13.678;2023-07-20T00:01:05;17.40;92.10
3850;DHT22;1940;51.052;13.678;2023-07-20T00:03:31;17.40;92.30
3850;DHT22;1940;51.052;13.678;2023-07-20T00:05:56;17.40;92.20
3850;DHT22;1940;51.052;13.678;2023-07-20T00:08:22;17.50;92.30
3850;DHT22;1940;51.052;13.678;2023-07-20T00:10:47;17.50;92.10
3850;DHT22;1940;51.052;13.678;2023-07-20T00:13:13;17.50;92.00
3850;DHT22;1940;51.052;13.678;2023-07-20T00:15:41;17.50;92.00
3850;DHT22;1940;51.052;13.678;2023-07-20T00:18:07;17.50;92.10
3850;DHT22;1940;51.052;13.678;2023-07-20T00:20:32;17.50;92.00
3850;DHT22;1940;51.052;13.678;2023-07-20T00:22:58;17.50;92.00
3850;DHT22;1940;51.052;13.678;2023-07-20T00:25:24;17.50;91.90
3850;DHT22;1940;51.052;13.678;2023-07-20T00:27:50;17.60;91.90
3850;DHT22;1940;51.052;13.678;2023-07-20T00:30:16;17.60;91.80
3850;DHT22;1940;51.052;13.678;2023-07-20T00:32:44;17.50;92.00
3850;DHT22;1940;51.052;13.678;2023-07-20T00:35:11;17.50;92.20
3850;DHT22;1940;51.052;13.678;2023-07-20T00:37:37;17.50;92.30
3850;DHT22;1940;51.052;13.678;2023-07-20T00:40:03;17.40;92.20
3850;DHT22;1940;51.052;13.678;2023-07-20T00:42:30;17.50;92.20
3850;DHT22;1940;51.052;13.678;2023-07-20T00:44:55;17.50;92.00
3850;DHT22;1940;51.052;13.678;2023-07-20T00:47:21;17.40;91.90
3850;DHT22;1940;51.052;13.678;2023-07-20T00:49:46;17.40;92.10
3850;DHT22;1940;51.052;13.678;2023-07-20T00:52:13;17.40;91.60
3850;DHT22;1940;51.052;13.678;2023-07-20T00:54:43;17.40;91.60
3850;DHT22;1940;51.052;13.678;2023-07-20T00:57:09;17.50;91.10
3850;DHT22;1940;51.052;13.678;2023-07-20T00:59:35;17.50;90.90
3850;DHT22;1940;51.052;13.678;2023-07-20T01:02:01;17.60;90.70
3850;DHT22;1940;51.052;13.678;2023-07-20T01:04:28;17.50;90.60
3850;DHT22;1940;51.052;13.678;2023-07-20T01:09:52;17.30;90.60
3850;DHT22;1940;51.052;13.678;2023-07-20T01:12:35;17.30;90.50
3850;DHT22;1940;51.052;13.678;2023-07-20T01:15:05;17.40;90.00
3850;DHT22;1940;51.052;13.678;2023-07-20T01:17:33;17.50;89.80
3850;DHT22;1940;51.052;13.678;2023-07-20T01:19:58;17.50;89.90
3850;DHT22;1940;51.052;13.678;2023-07-20T01:31:21;17.50;90.10
3850;DHT22;1940;51.052;13.678;2023-07-20T01:33:48;17.50;90.50
3850;DHT22;1940;51.052;13.678;2023-07-20T01:36:16;17.40;90.50
3850;DHT22;1940;51.052;13.678;2023-07-20T01:38:43;17.40;90.60
3850;DHT22;1940;51.052;13.678;2023-07-20T01:41:09;17.40;90.50
3850;DHT22;1940;51.052;13.678;2023-07-20T01:43:34;17.40;90.00
3850;DHT22;1940;51.052;13.678;2023-07-20T01:46:00;17.20;90.70
3850;DHT22;1940;51.052;13.678;2023-07-20T01:48:25;17.00;91.30
3850;DHT22;1940;51.052;13.678;2023-07-20T01:50:51;17.00;91.50
3850;DHT22;1940;51.052;13.678;2023-07-20T01:53:17;17.00;91.90
3850;DHT22;1940;51.052;13.678;2023-07-20T01:55:42;16.90;92.10
3850;DHT22;1940;51.052;13.678;2023-07-20T01:58:08;16.90;92.40
3850;DHT22;1940;51.052;13.678;2023-07-20T02:00:34;16.90;92.40
3850;DHT22;1940;51.052;13.678;2023-07-20T02:02:59;16.90;92.20
3850;DHT22;1940;51.052;13.678;2023-07-20T02:05:25;16.80;92.30
3850;DHT22;1940;51.052;13.678;2023-07-20T02:07:51;16.80;92.60
3850;DHT22;1940;51.052;13.678;2023-07-20T02:10:16;16.80;92.90
3850;DHT22;1940;51.052;13.678;2023-07-20T02:12:42;16.70;93.00
3850;DHT22;1940;51.052;13.678;2023-07-20T02:15:08;16.70;93.10
3850;DHT22;1940;51.052;13.678;2023-07-20T02:17:33;16.70;93.00
3850;DHT22;1940;51.052;13.678;2023-07-20T02:19:59;16.70;93.30
3850;DHT22;1940;51.052;13.678;2023-07-20T02:22:24;16.70;93.30
3850;DHT22;1940;51.052;13.678;2023-07-20T02:24:50;16.70;93.20
3850;DHT22;1940;51.052;13.678;2023-07-20T02:27:16;16.70;93.50
3850;DHT22;1940;51.052;13.678;2023-07-20T02:29:42;16.60;93.60
3850;DHT22;1940;51.052;13.678;2023-07-20T02:32:08;16.60;93.80
3850;DHT22;1940;51.052;13.678;2023-07-20T02:34:35;16.60;93.80
3850;DHT22;1940;51.052;13.678;2023-07-20T02:37:01;16.60;93.70
3850;DHT22;1940;51.052;13.678;2023-07-20T02:39:29;16.70;93.50
3850;DHT22;1940;51.052;13.678;2023-07-20T02:41:55;16.70;93.50
3850;DHT22;1940;51.052;13.678;2023-07-20T02:44:20;16.70;93.50
3850;DHT22;1940;51.052;13.678;2023-07-20T02:46:46;16.80;93.40
3850;DHT22;1940;51.052;13.678;2023-07-20T02:49:12;16.80;93.10
3850;DHT22;1940;51.052;13.678;2023-07-20T02:51:37;16.80;93.00
3850;DHT22;1940;51.052;13.678;2023-07-20T02:54:03;16.80;92.90
3850;DHT22;1940;51.052;13.678;2023-07-20T02:56:29;16.70;93.00
3850;DHT22;1940;51.052;13.678;2023-07-20T02:58:54;16.70;93.10
3850;DHT22;1940;51.052;13.678;2023-07-20T03:01:20;16.70;93.00
3850;DHT22;1940;51.052;13.678;2023-07-20T03:03:45;16.70;93.30
3850;DHT22;1940;51.052;13.678;2023-07-20T03:06:16;16.70;93.20
3850;DHT22;1940;51.052;13.678;2023-07-20T03:08:42;16.70;93.10
3850;DHT22;1940;51.052;13.678;2023-07-20T03:11:13;16.70;92.90
3850;DHT22;1940;51.052;13.678;2023-07-20T03:13:39;16.70;93.00
3850;DHT22;1940;51.052;13.678;2023-07-20T03:16:05;16.60;93.00
3850;DHT22;1940;51.052;13.678;2023-07-20T03:18:30;16.70;93.10
3850;DHT22;1940;51.052;13.678;2023-07-20T03:20:56;16.60;92.90
3850;DHT22;1940;51.052;13.678;2023-07-20T03:23:22;16.60;92.90
3850;DHT22;1940;51.052;13.678;2023-07-20T03:25:47;16.70;92.80
3850;DHT22;1940;51.052;13.678;2023-07-20T03:28:13;16.70;92.90
3850;DHT22;1940;51.052;13.678;2023-07-20T03:30:38;16.70;92.60
3850;DHT22;1940;51.052;13.678;2023-07-20T03:33:04;16.70;92.30
3850;DHT22;1940;51.052;13.678;2023-07-20T03:35:30;16.80;92.10
3850;DHT22;1940;51.052;13.678;2023-07-20T03:37:56;16.90;91.40
3850;DHT22;1940;51.052;13.678;2023-07-20T03:40:22;17.00;91.00
3850;DHT22;1940;51.052;13.678;2023-07-20T03:42:48;17.00;91.10
3850;DHT22;1940;51.052;13.678;2023-07-20T03:45:13;17.00;91.00
3850;DHT22;1940;51.052;13.678;2023-07-20T03:47:39;17.00;91.10
3850;DHT22;1940;51.052;13.678;2023-07-20T03:50:05;17.00;90.90
3850;DHT22;1940;51.052;13.678;2023-07-20T03:52:31;17.10;90.70
3850;DHT22;1940;51.052;13.678;2023-07-20T03:54:56;17.10;90.50
3850;DHT22;1940;51.052;13.678;2023-07-20T03:57:22;17.10;90.40
3850;DHT22;1940;51.052;13.678;2023-07-20T03:59:48;17.20;90.30
3850;DHT22;1940;51.052;13.678;2023-07-20T04:02:14;17.30;90.00
3850;DHT22;1940;51.052;13.678;2023-07-20T04:04:39;17.30;90.10
3850;DHT22;1940;51.052;13.678;2023-07-20T04:07:05;17.30;90.00
3850;DHT22;1940;51.052;13.678;2023-07-20T04:09:32;17.40;89.80
3850;DHT22;1940;51.052;13.678;2023-07-20T04:11:57;17.40;89.70
3850;DHT22;1940;51.052;13.678;2023-07-20T04:14:23;17.50;89.70
3850;DHT22;1940;51.052;13.678;2023-07-20T04:16:48;17.80;89.70
3850;DHT22;1940;51.052;13.678;2023-07-20T04:19:14;18.20;87.20
3850;DHT22;1940;51.052;13.678;2023-07-20T04:21:40;18.40;86.40
3850;DHT22;1940;51.052;13.678;2023-07-20T04:24:06;18.40;86.30
3850;DHT22;1940;51.052;13.678;2023-07-20T04:26:32;18.40;86.50
3850;DHT22;1940;51.052;13.678;2023-07-20T04:28:57;18.30;86.40
3850;DHT22;1940;51.052;13.678;2023-07-20T04:31:24;18.20;86.80
3850;DHT22;1940;51.052;13.678;2023-07-20T04:33:50;18.20;87.10
3850;DHT22;1940;51.052;13.678;2023-07-20T04:36:16;18.00;87.60
3850;DHT22;1940;51.052;13.678;2023-07-20T04:38:47;17.90;88.20
3850;DHT22;1940;51.052;13.678;2023-07-20T04:41:13;17.90;88.30
3850;DHT22;1940;51.052;13.678;2023-07-20T04:43:42;17.80;88.60
3850;DHT22;1940;51.052;13.678;2023-07-20T04:46:09;17.80;88.80
3850;DHT22;1940;51.052;13.678;2023-07-20T04:48:34;17.90;89.00
3850;DHT22;1940;51.052;13.678;2023-07-20T04:51:00;17.90;88.50
3850;DHT22;1940;51.052;13.678;2023-07-20T04:53:25;17.90;88.50
3850;DHT22;1940;51.052;13.678;2023-07-20T04:55:51;17.90;88.40
3850;DHT22;1940;51.052;13.678;2023-07-20T04:58:18;18.00;88.30
3850;DHT22;1940;51.052;13.678;2023-07-20T05:00:44;18.20;88.20
3850;DHT22;1940;51.052;13.678;2023-07-20T05:03:09;18.40;87.80
3850;DHT22;1940;51.052;13.678;2023-07-20T05:05:35;18.70;87.00
3850;DHT22;1940;51.052;13.678;2023-07-20T05:08:00;18.90;86.20
3850;DHT22;1940;51.052;13.678;2023-07-20T05:10:26;19.20;85.10
3850;DHT22;1940;51.052;13.678;2023-07-20T05:12:51;19.80;83.70
3850;DHT22;1940;51.052;13.678;2023-07-20T05:15:17;20.40;81.70
3850;DHT22;1940;51.052;13.678;2023-07-20T05:17:43;21.00;79.50
3850;DHT22;1940;51.052;13.678;2023-07-20T05:20:08;21.30;77.90
3850;DHT22;1940;51.052;13.678;2023-07-20T05:22:38;21.10;78.10
3850;DHT22;1940;51.052;13.678;2023-07-20T05:25:10;20.80;78.70
3850;DHT22;1940;51.052;13.678;2023-07-20T05:27:37;20.60;78.90
3850;DHT22;1940;51.052;13.678;2023-07-20T05:30:03;20.40;79.80
3850;DHT22;1940;51.052;13.678;2023-07-20T05:32:29;20.20;80.00
3850;DHT22;1940;51.052;13.678;2023-07-20T05:34:55;20.00;80.80
3850;DHT22;1940;51.052;13.678;2023-07-20T05:37:20;20.30;80.90
3850;DHT22;1940;51.052;13.678;2023-07-20T05:39:46;20.70;79.90
3850;DHT22;1940;51.052;13.678;2023-07-20T05:42:12;20.70;79.00
3850;DHT22;1940;51.052;13.678;2023-07-20T05:44:37;20.90;78.80
3850;DHT22;1940;51.052;13.678;2023-07-20T05:47:03;20.90;78.00
3850;DHT22;1940;51.052;13.678;2023-07-20T05:49:29;21.20;77.90
3850;DHT22;1940;51.052;13.678;2023-07-20T05:51:55;21.10;77.30
3850;DHT22;1940;51.052;13.678;2023-07-20T05:54:23;21.00;77.60
3850;DHT22;1940;51.052;13.678;2023-07-20T05:56:49;20.70;78.10
3850;DHT22;1940;51.052;13.678;2023-07-20T05:59:15;20.20;79.30
3850;DHT22;1940;51.052;13.678;2023-07-20T06:01:40;20.00;80.30
3850;DHT22;1940;51.052;13.678;2023-07-20T06:04:06;19.90;81.00
3850;DHT22;1940;51.052;13.678;2023-07-20T06:06:32;19.80;81.30
3850;DHT22;1940;51.052;13.678;2023-07-20T06:08:58;19.70;81.80
3850;DHT22;1940;51.052;13.678;2023-07-20T06:11:23;19.70;82.20
3850;DHT22;1940;51.052;13.678;2023-07-20T06:13:49;19.50;82.20
3850;DHT22;1940;51.052;13.678;2023-07-20T06:16:14;19.20;82.50
3850;DHT22;1940;51.052;13.678;2023-07-20T06:18:40;19.00;82.90
3850;DHT22;1940;51.052;13.678;2023-07-20T06:21:05;18.90;84.00
3850;DHT22;1940;51.052;13.678;2023-07-20T06:23:31;18.80;84.60
3850;DHT22;1940;51.052;13.678;2023-07-20T06:25:56;18.70;85.10
3850;DHT22;1940;51.052;13.678;2023-07-20T06:28:22;18.50;86.20
3850;DHT22;1940;51.052;13.678;2023-07-20T06:30:47;18.40;86.70
3850;DHT22;1940;51.052;13.678;2023-07-20T06:33:13;18.30;87.20
3850;DHT22;1940;51.052;13.678;2023-07-20T06:35:41;18.10;87.90
3850;DHT22;1940;51.052;13.678;2023-07-20T06:38:08;18.10;88.70
3850;DHT22;1940;51.052;13.678;2023-07-20T06:40:33;17.90;89.40
3850;DHT22;1940;51.052;13.678;2023-07-20T06:42:59;18.00;89.70
3850;DHT22;1940;51.052;13.678;2023-07-20T06:45:24;18.00;90.40
3850;DHT22;1940;51.052;13.678;2023-07-20T06:47:50;17.90;91.20
3850;DHT22;1940;51.052;13.678;2023-07-20T06:50:16;18.00;91.80
3850;DHT22;1940;51.052;13.678;2023-07-20T06:52:41;17.90;91.70
3850;DHT22;1940;51.052;13.678;2023-07-20T06:55:07;17.90;91.80
3850;DHT22;1940;51.052;13.678;2023-07-20T06:57:33;18.00;91.70
3850;DHT22;1940;51.052;13.678;2023-07-20T06:59:58;17.80;92.30
3850;DHT22;1940;51.052;13.678;2023-07-20T07:02:24;17.70;92.40
3850;DHT22;1940;51.052;13.678;2023-07-20T07:04:49;17.80;92.00
3850;DHT22;1940;51.052;13.678;2023-07-20T07:07:15;17.90;91.90
3850;DHT22;1940;51.052;13.678;2023-07-20T07:09:41;18.00;91.50
3850;DHT22;1940;51.052;13.678;2023-07-20T07:12:07;18.20;90.80
3850;DHT22;1940;51.052;13.678;2023-07-20T07:14:33;18.30;90.30
3850;DHT22;1940;51.052;13.678;2023-07-20T07:17:00;18.20;90.20
3850;DHT22;1940;51.052;13.678;2023-07-20T07:19:25;18.40;90.50
3850;DHT22;1940;51.052;13.678;2023-07-20T07:21:51;18.50;90.00
3850;DHT22;1940;51.052;13.678;2023-07-20T07:24:16;18.60;89.40
3850;DHT22;1940;51.052;13.678;2023-07-20T07:26:42;18.70;89.10
3850;DHT22;1940;51.052;13.678;2023-07-20T07:29:07;18.90;88.40
3850;DHT22;1940;51.052;13.678;2023-07-20T07:31:34;19.00;87.50
3850;DHT22;1940;51.052;13.678;2023-07-20T07:34:01;19.20;87.00
3850;DHT22;1940;51.052;13.678;2023-07-20T07:36:27;19.60;86.30
3850;DHT22;1940;51.052;13.678;2023-07-20T07:38:53;19.80;85.10
3850;DHT22;1940;51.052;13.678;2023-07-20T07:41:18;20.10;84.20
3850;DHT22;1940;51.052;13.678;2023-07-20T07:43:44;20.00;83.50
3850;DHT22;1940;51.052;13.678;2023-07-20T07:46:09;20.10;81.50
3850;DHT22;1940;51.052;13.678;2023-07-20T07:48:35;20.50;80.30
3850;DHT22;1940;51.052;13.678;2023-07-20T07:51:00;21.20;78.90
3850;DHT22;1940;51.052;13.678;2023-07-20T07:53:26;22.20;77.00
3850;DHT22;1940;51.052;13.678;2023-07-20T07:55:52;22.90;75.50
3850;DHT22;1940;51.052;13.678;2023-07-20T07:58:17;23.10;73.10
3850;DHT22;1940;51.052;13.678;2023-07-20T08:00:43;23.30;73.10
3850;DHT22;1940;51.052;13.678;2023-07-20T08:03:10;23.70;71.80
3850;DHT22;1940;51.052;13.678;2023-07-20T08:05:36;23.70;71.90
3850;DHT22;1940;51.052;13.678;2023-07-20T08:08:04;23.50;71.00
3850;DHT22;1940;51.052;13.678;2023-07-20T08:10:31;23.00;72.20
3850;DHT22;1940;51.052;13.678;2023-07-20T08:12:56;22.90;73.00
3850;DHT22;1940;51.052;13.678;2023-07-20T08:15:22;23.40;71.50
3850;DHT22;1940;51.052;13.678;2023-07-20T08:17:48;23.80;71.90
3850;DHT22;1940;51.052;13.678;2023-07-20T08:20:15;23.90;71.30
3850;DHT22;1940;51.052;13.678;2023-07-20T08:22:41;23.70;70.50
3850;DHT22;1940;51.052;13.678;2023-07-20T08:25:08;23.00;72.40
3850;DHT22;1940;51.052;13.678;2023-07-20T08:27:34;22.60;73.40
3850;DHT22;1940;51.052;13.678;2023-07-20T08:30:00;22.50;74.20
3850;DHT22;1940;51.052;13.678;2023-07-20T08:32:26;22.10;74.30
3850;DHT22;1940;51.052;13.678;2023-07-20T08:34:51;22.80;73.20
3850;DHT22;1940;51.052;13.678;2023-07-20T08:37:17;23.30;71.50
3850;DHT22;1940;51.052;13.678;2023-07-20T08:39:42;24.60;68.60
3850;DHT22;1940;51.052;13.678;2023-07-20T08:42:09;25.10;66.50
3850;DHT22;1940;51.052;13.678;2023-07-20T08:44:36;25.60;65.40
3850;DHT22;1940;51.052;13.678;2023-07-20T08:47:04;26.20;64.70
3850;DHT22;1940;51.052;13.678;2023-07-20T08:49:35;27.50;62.00
3850;DHT22;1940;51.052;13.678;2023-07-20T08:52:01;28.50;60.20
3850;DHT22;1940;51.052;13.678;2023-07-20T08:54:30;28.80;58.20
3850;DHT22;1940;51.052;13.678;2023-07-20T08:57:03;28.20;59.30
3850;DHT22;1940;51.052;13.678;2023-07-20T08:59:30;28.70;59.20
3850;DHT22;1940;51.052;13.678;2023-07-20T09:01:57;29.20;57.80
3850;DHT22;1940;51.052;13.678;2023-07-20T09:04:24;29.10;57.90
3850;DHT22;1940;51.052;13.678;2023-07-20T09:06:50;28.50;58.20
3850;DHT22;1940;51.052;13.678;2023-07-20T09:09:16;28.00;58.20
3850;DHT22;1940;51.052;13.678;2023-07-20T09:11:41;27.80;58.90
3850;DHT22;1940;51.052;13.678;2023-07-20T09:14:08;28.50;58.40
3850;DHT22;1940;51.052;13.678;2023-07-20T09:16:55;28.20;57.20
3850;DHT22;1940;51.052;13.678;2023-07-20T09:19:22;27.60;59.30
3850;DHT22;1940;51.052;13.678;2023-07-20T09:21:51;27.50;59.50
3850;DHT22;1940;51.052;13.678;2023-07-20T09:24:18;26.70;60.10
3850;DHT22;1940;51.052;13.678;2023-07-20T09:26:45;26.30;61.10
3850;DHT22;1940;51.052;13.678;2023-07-20T09:29:13;25.70;62.00
3850;DHT22;1940;51.052;13.678;2023-07-20T09:31:39;25.60;63.20
3850;DHT22;1940;51.052;13.678;2023-07-20T09:34:06;25.50;63.10
3850;DHT22;1940;51.052;13.678;2023-07-20T09:36:36;25.30;63.00
3850;DHT22;1940;51.052;13.678;2023-07-20T09:39:03;26.10;62.20
3850;DHT22;1940;51.052;13.678;2023-07-20T09:41:29;27.00;59.50
3850;DHT22;1940;51.052;13.678;2023-07-20T09:43:54;26.10;60.50
3850;DHT22;1940;51.052;13.678;2023-07-20T09:46:20;25.00;62.50
3850;DHT22;1940;51.052;13.678;2023-07-20T09:48:52;24.80;64.00
3850;DHT22;1940;51.052;13.678;2023-07-20T09:51:21;24.60;63.60
3850;DHT22;1940;51.052;13.678;2023-07-20T09:53:47;24.10;65.90
3850;DHT22;1940;51.052;13.678;2023-07-20T09:56:16;23.90;66.10
3850;DHT22;1940;51.052;13.678;2023-07-20T09:58:42;23.50;67.20
3850;DHT22;1940;51.052;13.678;2023-07-20T10:01:09;23.00;68.30
3850;DHT22;1940;51.052;13.678;2023-07-20T10:03:37;22.70;69.60
3850;DHT22;1940;51.052;13.678;2023-07-20T10:06:06;22.40;73.70
3850;DHT22;1940;51.052;13.678;2023-07-20T10:08:38;21.60;74.80
3850;DHT22;1940;51.052;13.678;2023-07-20T10:11:06;20.80;78.20
3850;DHT22;1940;51.052;13.678;2023-07-20T10:13:37;20.40;79.90
3850;DHT22;1940;51.052;13.678;2023-07-20T10:16:07;20.20;81.10
3850;DHT22;1940;51.052;13.678;2023-07-20T10:18:42;19.80;83.10
3850;DHT22;1940;51.052;13.678;2023-07-20T10:21:10;19.50;83.90
3850;DHT22;1940;51.052;13.678;2023-07-20T10:23:36;19.50;84.90
3850;DHT22;1940;51.052;13.678;2023-07-20T10:26:02;19.60;86.30
3850;DHT22;1940;51.052;13.678;2023-07-20T10:28:28;19.70;85.90
3850;DHT22;1940;51.052;13.678;2023-07-20T10:30:54;19.90;85.00
3850;DHT22;1940;51.052;13.678;2023-07-20T10:33:20;20.20;84.30
3850;DHT22;1940;51.052;13.678;2023-07-20T10:35:57;20.10;83.70
3850;DHT22;1940;51.052;13.678;2023-07-20T10:38:39;20.10;84.90
3850;DHT22;1940;51.052;13.678;2023-07-20T10:41:16;20.10;82.50
3850;DHT22;1940;51.052;13.678;2023-07-20T10:43:46;20.20;81.80
3850;DHT22;1940;51.052;13.678;2023-07-20T10:46:12;20.20;80.80
3850;DHT22;1940;51.052;13.678;2023-07-20T10:49:02;20.30;80.20
3850;DHT22;1940;51.052;13.678;2023-07-20T10:51:28;20.40;80.70
3850;DHT22;1940;51.052;13.678;2023-07-20T10:53:57;20.40;79.80
3850;DHT22;1940;51.052;13.678;2023-07-20T10:56:26;20.40;80.90
3850;DHT22;1940;51.052;13.678;2023-07-20T10:58:58;20.20;81.30
3850;DHT22;1940;51.052;13.678;2023-07-20T11:01:29;20.30;80.70
3850;DHT22;1940;51.052;13.678;2023-07-20T11:03:58;20.00;81.80
3850;DHT22;1940;51.052;13.678;2023-07-20T11:09:15;19.70;84.30
3850;DHT22;1940;51.052;13.678;2023-07-20T11:11:42;19.90;84.00
3850;DHT22;1940;51.052;13.678;2023-07-20T11:14:10;19.80;82.60
3850;DHT22;1940;51.052;13.678;2023-07-20T11:19:06;19.80;82.60
3850;DHT22;1940;51.052;13.678;2023-07-20T11:21:36;19.90;83.30
3850;DHT22;1940;51.052;13.678;2023-07-20T11:24:04;20.10;82.80
3850;DHT22;1940;51.052;13.678;2023-07-20T11:26:30;20.10;83.10
3850;DHT22;1940;51.052;13.678;2023-07-20T11:28:55;20.50;82.60
3850;DHT22;1940;51.052;13.678;2023-07-20T11:31:21;21.10;81.80
3850;DHT22;1940;51.052;13.678;2023-07-20T11:33:46;21.80;80.90
3850;DHT22;1940;51.052;13.678;2023-07-20T11:36:13;22.00;79.30
3850;DHT22;1940;51.052;13.678;2023-07-20T11:38:41;22.00;78.70
3850;DHT22;1940;51.052;13.678;2023-07-20T11:41:08;21.70;77.70
3850;DHT22;1940;51.052;13.678;2023-07-20T11:43:33;21.50;78.40
3850;DHT22;1940;51.052;13.678;2023-07-20T11:45:59;21.50;78.10
3850;DHT22;1940;51.052;13.678;2023-07-20T11:48:25;21.60;78.20
3850;DHT22;1940;51.052;13.678;2023-07-20T11:50:51;21.60;77.30
3850;DHT22;1940;51.052;13.678;2023-07-20T11:53:17;21.90;77.70
3850;DHT22;1940;51.052;13.678;2023-07-20T11:55:42;22.30;75.80
3850;DHT22;1940;51.052;13.678;2023-07-20T11:58:09;22.50;74.50
3850;DHT22;1940;51.052;13.678;2023-07-20T12:00:36;22.80;74.60
3850;DHT22;1940;51.052;13.678;2023-07-20T12:03:05;22.30;72.10
3850;DHT22;1940;51.052;13.678;2023-07-20T12:05:32;21.80;75.10
3850;DHT22;1940;51.052;13.678;2023-07-20T12:07:57;21.60;74.90
3850;DHT22;1940;51.052;13.678;2023-07-20T12:10:27;21.50;75.70
3850;DHT22;1940;51.052;13.678;2023-07-20T12:13:03;21.30;77.20
3850;DHT22;1940;51.052;13.678;2023-07-20T12:15:29;21.00;78.70
3850;DHT22;1940;51.052;13.678;2023-07-20T12:17:58;20.80;80.30
3850;DHT22;1940;51.052;13.678;2023-07-20T12:20:35;20.50;80.40
3850;DHT22;1940;51.052;13.678;2023-07-20T12:23:12;20.50;81.50
3850;DHT22;1940;51.052;13.678;2023-07-20T12:25:40;20.40;82.50
3850;DHT22;1940;51.052;13.678;2023-07-20T12:28:13;20.40;83.80
3850;DHT22;1940;51.052;13.678;2023-07-20T12:30:40;20.40;84.30
3850;DHT22;1940;51.052;13.678;2023-07-20T12:33:06;20.20;85.40
3850;DHT22;1940;51.052;13.678;2023-07-20T12:35:32;19.90;86.50
3850;DHT22;1940;51.052;13.678;2023-07-20T12:37:58;19.70;87.00
3850;DHT22;1940;51.052;13.678;2023-07-20T12:40:24;19.70;87.80
3850;DHT22;1940;51.052;13.678;2023-07-20T12:42:50;19.60;87.20
3850;DHT22;1940;51.052;13.678;2023-07-20T12:45:15;19.50;88.10
3850;DHT22;1940;51.052;13.678;2023-07-20T12:47:41;19.50;87.40
3850;DHT22;1940;51.052;13.678;2023-07-20T12:50:11;19.40;85.10
3850;DHT22;1940;51.052;13.678;2023-07-20T12:52:40;19.40;85.10
3850;DHT22;1940;51.052;13.678;2023-07-20T12:55:07;19.30;85.40
3850;DHT22;1940;51.052;13.678;2023-07-20T12:57:37;19.30;86.10
3850;DHT22;1940;51.052;13.678;2023-07-20T13:00:04;19.30;86.40
3850;DHT22;1940;51.052;13.678;2023-07-20T13:02:31;19.40;86.00
3850;DHT22;1940;51.052;13.678;2023-07-20T13:04:57;19.50;86.60
3850;DHT22;1940;51.052;13.678;2023-07-20T13:07:31;19.40;86.10
3850;DHT22;1940;51.052;13.678;2023-07-20T13:09:57;19.50;85.60
3850;DHT22;1940;51.052;13.678;2023-07-20T13:12:24;19.70;84.80
3850;DHT22;1940;51.052;13.678;2023-07-20T13:14:50;19.70;83.70
3850;DHT22;1940;51.052;13.678;2023-07-20T13:17:15;19.90;83.00
3850;DHT22;1940;51.052;13.678;2023-07-20T13:19:41;19.90;82.80
3850;DHT22;1940;51.052;13.678;2023-07-20T13:22:06;19.90;83.00
3850;DHT22;1940;51.052;13.678;2023-07-20T13:24:32;19.90;82.20
3850;DHT22;1940;51.052;13.678;2023-07-20T13:26:57;20.00;82.70
3850;DHT22;1940;51.052;13.678;2023-07-20T13:29:24;20.00;82.10
3850;DHT22;1940;51.052;13.678;2023-07-20T13:31:50;19.90;82.20
3850;DHT22;1940;51.052;13.678;2023-07-20T13:34:16;20.10;81.30
3850;DHT22;1940;51.052;13.678;2023-07-20T13:36:41;20.00;81.70
3850;DHT22;1940;51.052;13.678;2023-07-20T13:39:07;20.00;82.00
3850;DHT22;1940;51.052;13.678;2023-07-20T13:41:34;20.10;80.90
3850;DHT22;1940;51.052;13.678;2023-07-20T13:43:59;20.00;80.80
3850;DHT22;1940;51.052;13.678;2023-07-20T13:46:25;20.10;81.00
3850;DHT22;1940;51.052;13.678;2023-07-20T13:48:51;20.20;79.50
3850;DHT22;1940;51.052;13.678;2023-07-20T13:51:17;20.20;80.50
3850;DHT22;1940;51.052;13.678;2023-07-20T13:53:43;20.30;78.60
3850;DHT22;1940;51.052;13.678;2023-07-20T13:56:10;20.50;79.40
3850;DHT22;1940;51.052;13.678;2023-07-20T13:58:35;20.70;79.00
3850;DHT22;1940;51.052;13.678;2023-07-20T14:01:02;20.70;79.20
3850;DHT22;1940;51.052;13.678;2023-07-20T14:03:27;20.60;76.80
3850;DHT22;1940;51.052;13.678;2023-07-20T14:05:53;20.80;77.80
3850;DHT22;1940;51.052;13.678;2023-07-20T14:08:18;20.80;77.20
3850;DHT22;1940;51.052;13.678;2023-07-20T14:10:44;20.90;75.90
3850;DHT22;1940;51.052;13.678;2023-07-20T14:13:09;20.80;76.90
3850;DHT22;1940;51.052;13.678;2023-07-20T14:15:35;20.80;76.30
3850;DHT22;1940;51.052;13.678;2023-07-20T14:18:00;20.80;76.90
3850;DHT22;1940;51.052;13.678;2023-07-20T14:20:26;20.90;77.00
3850;DHT22;1940;51.052;13.678;2023-07-20T14:22:51;20.90;77.00
3850;DHT22;1940;51.052;13.678;2023-07-20T14:25:17;21.20;76.50
3850;DHT22;1940;51.052;13.678;2023-07-20T14:27:42;21.50;76.70
3850;DHT22;1940;51.052;13.678;2023-07-20T14:30:08;21.60;75.90
3850;DHT22;1940;51.052;13.678;2023-07-20T14:32:34;21.70;75.50
3850;DHT22;1940;51.052;13.678;2023-07-20T14:34:59;21.60;75.20
3850;DHT22;1940;51.052;13.678;2023-07-20T14:37:25;21.80;73.00
3850;DHT22;1940;51.052;13.678;2023-07-20T14:39:50;22.00;73.00
3850;DHT22;1940;51.052;13.678;2023-07-20T14:42:16;22.00;73.60
3850;DHT22;1940;51.052;13.678;2023-07-20T14:44:43;22.00;74.40
3850;DHT22;1940;51.052;13.678;2023-07-20T14:47:08;22.30;75.10
3850;DHT22;1940;51.052;13.678;2023-07-20T14:49:34;22.60;75.10
3850;DHT22;1940;51.052;13.678;2023-07-20T14:51:59;22.70;72.40
3850;DHT22;1940;51.052;13.678;2023-07-20T14:54:25;22.50;71.60
3850;DHT22;1940;51.052;13.678;2023-07-20T14:56:51;22.30;72.20
3850;DHT22;1940;51.052;13.678;2023-07-20T14:59:18;22.20;73.70
3850;DHT22;1940;51.052;13.678;2023-07-20T15:01:44;22.00;73.70
3850;DHT22;1940;51.052;13.678;2023-07-20T15:04:13;21.90;74.40
3850;DHT22;1940;51.052;13.678;2023-07-20T15:06:39;21.80;74.30
3850;DHT22;1940;51.052;13.678;2023-07-20T15:09:05;21.80;74.10
3850;DHT22;1940;51.052;13.678;2023-07-20T15:11:30;21.70;73.70
3850;DHT22;1940;51.052;13.678;2023-07-20T15:13:56;21.70;73.80
3850;DHT22;1940;51.052;13.678;2023-07-20T15:16:23;21.60;75.20
3850;DHT22;1940;51.052;13.678;2023-07-20T15:18:49;21.60;74.80
3850;DHT22;1940;51.052;13.678;2023-07-20T15:21:15;21.70;73.90
3850;DHT22;1940;51.052;13.678;2023-07-20T15:23:41;21.80;74.60
3850;DHT22;1940;51.052;13.678;2023-07-20T15:26:07;21.70;74.10
3850;DHT22;1940;51.052;13.678;2023-07-20T15:28:32;21.60;73.30
3850;DHT22;1940;51.052;13.678;2023-07-20T15:31:02;21.70;73.40
3850;DHT22;1940;51.052;13.678;2023-07-20T15:33:28;21.80;74.00
3850;DHT22;1940;51.052;13.678;2023-07-20T15:35:54;21.80;74.40
3850;DHT22;1940;51.052;13.678;2023-07-20T15:38:19;21.80;74.20
3850;DHT22;1940;51.052;13.678;2023-07-20T15:40:46;21.60;74.00
3850;DHT22;1940;51.052;13.678;2023-07-20T15:43:12;21.50;74.80
3850;DHT22;1940;51.052;13.678;2023-07-20T15:45:37;21.30;75.00
3850;DHT22;1940;51.052;13.678;2023-07-20T15:48:03;21.30;75.70
3850;DHT22;1940;51.052;13.678;2023-07-20T15:50:29;21.50;74.20
3850;DHT22;1940;51.052;13.678;2023-07-20T15:52:54;21.50;73.90
3850;DHT22;1940;51.052;13.678;2023-07-20T15:55:20;21.60;73.70
3850;DHT22;1940;51.052;13.678;2023-07-20T15:57:45;21.80;73.10